sensor_id;sensor_type;location;lat;lon;timestamp;P1;durP1;ratioP1;P2;durP2;ratioP2
60851;SDS011;48553;50.766;2.900;2023-04-03T00:00:20;24.05;;;11.57;;
60851;SDS011;48553;50.766;2.900;2023-04-03T00:03:20;20.75;;;11.48;;
60851;SDS011;48553;50.766;2.900;2023-04-03T00:06:21;23.13;;;11.73;;
60851;SDS011;48553;50.766;2.900;2023-04-03T00:09:22;21.63;;;11.63;;
60851;SDS011;48553;50.766;2.900;2023-04-03T00:12:22;21.67;;;11.65;;
60851;SDS011;48553;50.766;2.900;2023-04-03T00:15:23;22.60;;;11.82;;
60851;SDS011;48553;50.766;2.900;2023-04-03T00:18:23;19.52;;;11.70;;
60851;SDS011;48553;50.766;2.900;2023-04-03T00:21:24;21.92;;;11.98;;
60851;SDS011;48553;50.766;2.900;2023-04-03T00:24:24;22.73;;;11.23;;
60851;SDS011;48553;50.766;2.900;2023-04-03T00:27:24;21.55;;;11.15;;
60851;SDS011;48553;50.766;2.900;2023-04-03T00:30:25;22.48;;;11.98;;
60851;SDS011;48553;50.766;2.900;2023-04-03T00:33:25;19.58;;;11.70;;
60851;SDS011;48553;50.766;2.900;2023-04-03T00:36:26;20.25;;;11.52;;
60851;SDS011;48553;50.766;2.900;2023-04-03T00:39:26;20.00;;;11.02;;
60851;SDS011;48553;50.766;2.900;2023-04-03T00:42:27;20.35;;;11.45;;
60851;SDS011;48553;50.766;2.900;2023-04-03T00:45:33;19.25;;;10.05;;
60851;SDS011;48553;50.766;2.900;2023-04-03T00:48:45;22.23;;;10.68;;
60851;SDS011;48553;50.766;2.900;2023-04-03T00:51:47;19.67;;;10.90;;
60851;SDS011;48553;50.766;2.900;2023-04-03T00:54:49;18.58;;;10.55;;
60851;SDS011;48553;50.766;2.900;2023-04-03T00:57:52;24.17;;;10.60;;
60851;SDS011;48553;50.766;2.900;2023-04-03T01:00:54;20.48;;;10.65;;
60851;SDS011;48553;50.766;2.900;2023-04-03T01:03:58;22.92;;;10.32;;
60851;SDS011;48553;50.766;2.900;2023-04-03T01:07:01;18.98;;;9.98;;
60851;SDS011;48553;50.766;2.900;2023-04-03T01:10:15;19.20;;;9.68;;
60851;SDS011;48553;50.766;2.900;2023-04-03T01:13:26;19.13;;;10.43;;
60851;SDS011;48553;50.766;2.900;2023-04-03T01:16:30;17.63;;;10.10;;
60851;SDS011;48553;50.766;2.900;2023-04-03T01:19:31;19.95;;;10.40;;
60851;SDS011;48553;50.766;2.900;2023-04-03T01:22:40;18.55;;;9.65;;
60851;SDS011;48553;50.766;2.900;2023-04-03T01:25:52;18.75;;;10.02;;
60851;SDS011;48553;50.766;2.900;2023-04-03T01:28:55;18.27;;;9.75;;
60851;SDS011;48553;50.766;2.900;2023-04-03T01:31:56;17.05;;;9.60;;
60851;SDS011;48553;50.766;2.900;2023-04-03T01:34:58;17.33;;;9.38;;
60851;SDS011;48553;50.766;2.900;2023-04-03T01:37:59;18.73;;;9.73;;
60851;SDS011;48553;50.766;2.900;2023-04-03T01:40:59;20.00;;;9.98;;
60851;SDS011;48553;50.766;2.900;2023-04-03T01:44:00;18.67;;;9.43;;
60851;SDS011;48553;50.766;2.900;2023-04-03T01:47:00;16.25;;;9.43;;
60851;SDS011;48553;50.766;2.900;2023-04-03T01:50:01;19.50;;;9.73;;
60851;SDS011;48553;50.766;2.900;2023-04-03T01:53:01;18.20;;;9.40;;
60851;SDS011;48553;50.766;2.900;2023-04-03T01:56:02;16.35;;;9.20;;
60851;SDS011;48553;50.766;2.900;2023-04-03T01:59:03;14.98;;;8.73;;
60851;SDS011;48553;50.766;2.900;2023-04-03T02:02:03;16.85;;;9.10;;
60851;SDS011;48553;50.766;2.900;2023-04-03T02:05:03;17.50;;;9.07;;
60851;SDS011;48553;50.766;2.900;2023-04-03T02:08:04;18.98;;;9.63;;
60851;SDS011;48553;50.766;2.900;2023-04-03T02:11:04;16.65;;;8.93;;
60851;SDS011;48553;50.766;2.900;2023-04-03T02:14:05;17.58;;;9.07;;
60851;SDS011;48553;50.766;2.900;2023-04-03T02:17:05;15.93;;;8.93;;
60851;SDS011;48553;50.766;2.900;2023-04-03T02:20:08;17.27;;;8.82;;
60851;SDS011;48553;50.766;2.900;2023-04-03T02:23:09;15.55;;;8.95;;
60851;SDS011;48553;50.766;2.900;2023-04-03T02:26:11;14.57;;;8.40;;
60851;SDS011;48553;50.766;2.900;2023-04-03T02:29:13;15.50;;;7.65;;
60851;SDS011;48553;50.766;2.900;2023-04-03T02:32:14;16.75;;;8.18;;
60851;SDS011;48553;50.766;2.900;2023-04-03T02:35:15;15.55;;;7.78;;
60851;SDS011;48553;50.766;2.900;2023-04-03T02:38:15;13.10;;;7.93;;
60851;SDS011;48553;50.766;2.900;2023-04-03T02:41:16;13.27;;;7.82;;
60851;SDS011;48553;50.766;2.900;2023-04-03T02:44:16;14.27;;;7.78;;
60851;SDS011;48553;50.766;2.900;2023-04-03T02:47:17;15.60;;;8.40;;
60851;SDS011;48553;50.766;2.900;2023-04-03T02:50:18;13.13;;;7.10;;
60851;SDS011;48553;50.766;2.900;2023-04-03T02:53:18;14.23;;;7.40;;
60851;SDS011;48553;50.766;2.900;2023-04-03T02:56:19;13.65;;;7.40;;
60851;SDS011;48553;50.766;2.900;2023-04-03T02:59:20;17.02;;;7.57;;
60851;SDS011;48553;50.766;2.900;2023-04-03T03:02:20;13.15;;;6.90;;
60851;SDS011;48553;50.766;2.900;2023-04-03T03:05:21;12.68;;;7.05;;
60851;SDS011;48553;50.766;2.900;2023-04-03T03:08:21;13.10;;;6.80;;
60851;SDS011;48553;50.766;2.900;2023-04-03T03:11:22;11.90;;;7.60;;
60851;SDS011;48553;50.766;2.900;2023-04-03T03:14:22;13.68;;;7.60;;
60851;SDS011;48553;50.766;2.900;2023-04-03T03:17:23;9.60;;;6.22;;
60851;SDS011;48553;50.766;2.900;2023-04-03T03:20:24;15.85;;;7.22;;
60851;SDS011;48553;50.766;2.900;2023-04-03T03:23:25;13.20;;;7.43;;
60851;SDS011;48553;50.766;2.900;2023-04-03T03:26:27;14.55;;;7.85;;
60851;SDS011;48553;50.766;2.900;2023-04-03T03:29:27;14.80;;;7.43;;
60851;SDS011;48553;50.766;2.900;2023-04-03T03:32:28;13.68;;;7.57;;
60851;SDS011;48553;50.766;2.900;2023-04-03T03:35:28;15.13;;;7.40;;
60851;SDS011;48553;50.766;2.900;2023-04-03T03:38:29;13.15;;;7.43;;
60851;SDS011;48553;50.766;2.900;2023-04-03T03:41:29;14.07;;;7.13;;
60851;SDS011;48553;50.766;2.900;2023-04-03T03:44:30;18.42;;;7.80;;
60851;SDS011;48553;50.766;2.900;2023-04-03T03:47:31;14.93;;;7.45;;
60851;SDS011;48553;50.766;2.900;2023-04-03T03:50:32;13.27;;;7.32;;
60851;SDS011;48553;50.766;2.900;2023-04-03T03:53:33;11.90;;;6.82;;
60851;SDS011;48553;50.766;2.900;2023-04-03T03:56:33;12.02;;;7.18;;
60851;SDS011;48553;50.766;2.900;2023-04-03T03:59:34;13.13;;;6.90;;
60851;SDS011;48553;50.766;2.900;2023-04-03T04:02:34;11.55;;;6.82;;
60851;SDS011;48553;50.766;2.900;2023-04-03T04:05:35;11.90;;;6.70;;
60851;SDS011;48553;50.766;2.900;2023-04-03T04:08:35;12.48;;;7.55;;
60851;SDS011;48553;50.766;2.900;2023-04-03T04:11:36;14.45;;;7.15;;
60851;SDS011;48553;50.766;2.900;2023-04-03T04:14:36;14.10;;;7.28;;
60851;SDS011;48553;50.766;2.900;2023-04-03T04:17:37;14.40;;;7.13;;
60851;SDS011;48553;50.766;2.900;2023-04-03T04:20:37;13.55;;;7.20;;
60851;SDS011;48553;50.766;2.900;2023-04-03T04:23:37;13.82;;;6.82;;
60851;SDS011;48553;50.766;2.900;2023-04-03T04:26:38;12.98;;;7.10;;
60851;SDS011;48553;50.766;2.900;2023-04-03T04:29:38;11.75;;;7.13;;
60851;SDS011;48553;50.766;2.900;2023-04-03T04:32:39;14.57;;;6.70;;
60851;SDS011;48553;50.766;2.900;2023-04-03T04:35:40;12.95;;;7.20;;
60851;SDS011;48553;50.766;2.900;2023-04-03T04:38:42;11.75;;;7.00;;
60851;SDS011;48553;50.766;2.900;2023-04-03T04:41:42;13.15;;;7.45;;
60851;SDS011;48553;50.766;2.900;2023-04-03T04:44:43;11.68;;;7.00;;
60851;SDS011;48553;50.766;2.900;2023-04-03T04:47:43;10.65;;;6.95;;
60851;SDS011;48553;50.766;2.900;2023-04-03T04:50:44;11.73;;;6.95;;
60851;SDS011;48553;50.766;2.900;2023-04-03T04:53:45;10.95;;;7.07;;
60851;SDS011;48553;50.766;2.900;2023-04-03T04:56:45;11.80;;;6.88;;
60851;SDS011;48553;50.766;2.900;2023-04-03T04:59:46;14.25;;;7.07;;
60851;SDS011;48553;50.766;2.900;2023-04-03T05:02:46;11.77;;;7.05;;
60851;SDS011;48553;50.766;2.900;2023-04-03T05:05:47;13.45;;;6.90;;
60851;SDS011;48553;50.766;2.900;2023-04-03T05:08:47;12.88;;;6.90;;
60851;SDS011;48553;50.766;2.900;2023-04-03T05:11:47;12.65;;;7.13;;
60851;SDS011;48553;50.766;2.900;2023-04-03T05:14:51;11.65;;;7.00;;
60851;SDS011;48553;50.766;2.900;2023-04-03T05:17:51;12.25;;;6.70;;
60851;SDS011;48553;50.766;2.900;2023-04-03T05:20:52;10.93;;;6.97;;
60851;SDS011;48553;50.766;2.900;2023-04-03T05:23:52;13.75;;;7.18;;
60851;SDS011;48553;50.766;2.900;2023-04-03T05:26:53;14.38;;;6.95;;
60851;SDS011;48553;50.766;2.900;2023-04-03T05:29:54;12.02;;;7.38;;
60851;SDS011;48553;50.766;2.900;2023-04-03T05:32:55;13.95;;;6.95;;
60851;SDS011;48553;50.766;2.900;2023-04-03T05:35:55;13.27;;;7.68;;
60851;SDS011;48553;50.766;2.900;2023-04-03T05:38:55;12.20;;;6.97;;
60851;SDS011;48553;50.766;2.900;2023-04-03T05:41:56;13.30;;;7.07;;
60851;SDS011;48553;50.766;2.900;2023-04-03T05:44:57;12.73;;;6.97;;
60851;SDS011;48553;50.766;2.900;2023-04-03T05:47:57;11.35;;;6.88;;
60851;SDS011;48553;50.766;2.900;2023-04-03T05:50:58;13.40;;;6.88;;
60851;SDS011;48553;50.766;2.900;2023-04-03T05:54:01;9.65;;;6.28;;
60851;SDS011;48553;50.766;2.900;2023-04-03T05:57:07;10.18;;;6.45;;
60851;SDS011;48553;50.766;2.900;2023-04-03T06:00:08;15.70;;;6.30;;
60851;SDS011;48553;50.766;2.900;2023-04-03T06:03:12;10.00;;;6.25;;
60851;SDS011;48553;50.766;2.900;2023-04-03T06:06:13;10.48;;;6.25;;
60851;SDS011;48553;50.766;2.900;2023-04-03T06:09:14;12.23;;;6.53;;
60851;SDS011;48553;50.766;2.900;2023-04-03T06:12:16;9.38;;;6.22;;
60851;SDS011;48553;50.766;2.900;2023-04-03T06:15:17;13.02;;;6.72;;
60851;SDS011;48553;50.766;2.900;2023-04-03T06:18:17;9.25;;;6.28;;
60851;SDS011;48553;50.766;2.900;2023-04-03T06:21:18;11.57;;;6.63;;
60851;SDS011;48553;50.766;2.900;2023-04-03T06:24:18;12.85;;;6.45;;
60851;SDS011;48553;50.766;2.900;2023-04-03T06:27:21;13.52;;;6.32;;
60851;SDS011;48553;50.766;2.900;2023-04-03T06:30:22;12.48;;;6.35;;
60851;SDS011;48553;50.766;2.900;2023-04-03T06:33:22;10.82;;;6.40;;
60851;SDS011;48553;50.766;2.900;2023-04-03T06:36:23;9.88;;;5.97;;
60851;SDS011;48553;50.766;2.900;2023-04-03T06:39:23;12.43;;;6.60;;
60851;SDS011;48553;50.766;2.900;2023-04-03T06:42:24;11.88;;;6.25;;
60851;SDS011;48553;50.766;2.900;2023-04-03T06:45:24;12.90;;;6.70;;
60851;SDS011;48553;50.766;2.900;2023-04-03T06:48:25;11.32;;;6.38;;
60851;SDS011;48553;50.766;2.900;2023-04-03T06:51:26;12.18;;;6.20;;
60851;SDS011;48553;50.766;2.900;2023-04-03T06:54:27;12.40;;;6.18;;
60851;SDS011;48553;50.766;2.900;2023-04-03T06:57:28;11.55;;;6.68;;
60851;SDS011;48553;50.766;2.900;2023-04-03T07:00:29;11.05;;;6.43;;
60851;SDS011;48553;50.766;2.900;2023-04-03T07:03:30;11.82;;;6.00;;
60851;SDS011;48553;50.766;2.900;2023-04-03T07:06:30;12.55;;;6.18;;
60851;SDS011;48553;50.766;2.900;2023-04-03T07:09:32;12.98;;;6.22;;
60851;SDS011;48553;50.766;2.900;2023-04-03T07:12:32;10.18;;;6.30;;
60851;SDS011;48553;50.766;2.900;2023-04-03T07:15:33;12.13;;;6.03;;
60851;SDS011;48553;50.766;2.900;2023-04-03T07:18:33;10.77;;;6.30;;
60851;SDS011;48553;50.766;2.900;2023-04-03T07:21:34;9.95;;;6.15;;
60851;SDS011;48553;50.766;2.900;2023-04-03T07:24:35;10.18;;;6.30;;
60851;SDS011;48553;50.766;2.900;2023-04-03T07:27:35;11.90;;;6.13;;
60851;SDS011;48553;50.766;2.900;2023-04-03T07:30:41;11.18;;;6.45;;
60851;SDS011;48553;50.766;2.900;2023-04-03T07:33:43;9.18;;;5.85;;
60851;SDS011;48553;50.766;2.900;2023-04-03T07:36:44;9.90;;;6.20;;
60851;SDS011;48553;50.766;2.900;2023-04-03T07:39:44;11.50;;;5.93;;
60851;SDS011;48553;50.766;2.900;2023-04-03T07:42:45;9.07;;;5.55;;
60851;SDS011;48553;50.766;2.900;2023-04-03T07:45:45;8.13;;;5.50;;
60851;SDS011;48553;50.766;2.900;2023-04-03T07:48:49;8.10;;;5.10;;
60851;SDS011;48553;50.766;2.900;2023-04-03T07:51:50;10.25;;;5.28;;
60851;SDS011;48553;50.766;2.900;2023-04-03T07:54:51;8.57;;;5.20;;
60851;SDS011;48553;50.766;2.900;2023-04-03T07:57:51;9.52;;;5.22;;
60851;SDS011;48553;50.766;2.900;2023-04-03T08:00:52;8.02;;;5.20;;
60851;SDS011;48553;50.766;2.900;2023-04-03T08:03:52;8.45;;;4.93;;
60851;SDS011;48553;50.766;2.900;2023-04-03T08:06:53;9.40;;;4.95;;
60851;SDS011;48553;50.766;2.900;2023-04-03T08:09:53;8.57;;;4.65;;
60851;SDS011;48553;50.766;2.900;2023-04-03T08:12:53;8.68;;;4.63;;
60851;SDS011;48553;50.766;2.900;2023-04-03T08:15:54;7.75;;;4.80;;
60851;SDS011;48553;50.766;2.900;2023-04-03T08:18:57;8.40;;;4.80;;
60851;SDS011;48553;50.766;2.900;2023-04-03T08:21:57;7.82;;;4.30;;
60851;SDS011;48553;50.766;2.900;2023-04-03T08:24:58;5.97;;;4.55;;
60851;SDS011;48553;50.766;2.900;2023-04-03T08:27:59;6.03;;;4.28;;
60851;SDS011;48553;50.766;2.900;2023-04-03T08:31:04;7.32;;;4.53;;
60851;SDS011;48553;50.766;2.900;2023-04-03T08:34:06;6.47;;;4.15;;
60851;SDS011;48553;50.766;2.900;2023-04-03T08:37:06;8.27;;;4.03;;
60851;SDS011;48553;50.766;2.900;2023-04-03T08:40:07;7.32;;;4.10;;
60851;SDS011;48553;50.766;2.900;2023-04-03T08:43:35;6.88;;;4.03;;
60851;SDS011;48553;50.766;2.900;2023-04-03T08:50:26;5.60;;;3.80;;
60851;SDS011;48553;50.766;2.900;2023-04-03T08:53:42;7.43;;;3.78;;
60851;SDS011;48553;50.766;2.900;2023-04-03T08:56:52;5.25;;;3.70;;
60851;SDS011;48553;50.766;2.900;2023-04-03T09:00:00;6.75;;;4.10;;
60851;SDS011;48553;50.766;2.900;2023-04-03T09:03:03;6.90;;;3.85;;
60851;SDS011;48553;50.766;2.900;2023-04-03T09:06:13;5.82;;;3.95;;
60851;SDS011;48553;50.766;2.900;2023-04-03T09:12:59;6.90;;;4.18;;
60851;SDS011;48553;50.766;2.900;2023-04-03T09:19:56;7.90;;;4.70;;
60851;SDS011;48553;50.766;2.900;2023-04-03T09:23:09;8.32;;;4.47;;
60851;SDS011;48553;50.766;2.900;2023-04-03T09:27:13;7.55;;;4.32;;
60851;SDS011;48553;50.766;2.900;2023-04-03T09:30:24;7.22;;;4.28;;
60851;SDS011;48553;50.766;2.900;2023-04-03T09:33:25;7.53;;;4.28;;
60851;SDS011;48553;50.766;2.900;2023-04-03T09:36:46;7.53;;;4.63;;
60851;SDS011;48553;50.766;2.900;2023-04-03T09:39:50;9.50;;;4.70;;
60851;SDS011;48553;50.766;2.900;2023-04-03T09:43:00;7.30;;;4.50;;
60851;SDS011;48553;50.766;2.900;2023-04-03T09:49:38;7.07;;;4.45;;
60851;SDS011;48553;50.766;2.900;2023-04-03T09:52:38;7.50;;;4.10;;
60851;SDS011;48553;50.766;2.900;2023-04-03T09:55:43;8.93;;;4.32;;
60851;SDS011;48553;50.766;2.900;2023-04-03T09:58:46;7.18;;;4.53;;
60851;SDS011;48553;50.766;2.900;2023-04-03T10:01:58;9.80;;;4.50;;
60851;SDS011;48553;50.766;2.900;2023-04-03T10:05:02;7.15;;;4.00;;
60851;SDS011;48553;50.766;2.900;2023-04-03T10:11:14;7.75;;;4.07;;
60851;SDS011;48553;50.766;2.900;2023-04-03T10:14:17;7.72;;;4.10;;
60851;SDS011;48553;50.766;2.900;2023-04-03T10:23:26;9.23;;;4.83;;
60851;SDS011;48553;50.766;2.900;2023-04-03T10:29:49;9.25;;;5.65;;
60851;SDS011;48553;50.766;2.900;2023-04-03T10:36:46;9.60;;;6.00;;
60851;SDS011;48553;50.766;2.900;2023-04-03T10:40:02;11.10;;;6.38;;
60851;SDS011;48553;50.766;2.900;2023-04-03T10:44:15;11.55;;;6.93;;
60851;SDS011;48553;50.766;2.900;2023-04-03T10:46:49;10.43;;;7.38;;
60851;SDS011;48553;50.766;2.900;2023-04-03T10:49:58;12.82;;;6.65;;
60851;SDS011;48553;50.766;2.900;2023-04-03T10:53:24;10.60;;;6.90;;
60851;SDS011;48553;50.766;2.900;2023-04-03T10:56:50;12.23;;;7.30;;
60851;SDS011;48553;50.766;2.900;2023-04-03T11:00:04;12.18;;;7.72;;
60851;SDS011;48553;50.766;2.900;2023-04-03T11:06:22;11.55;;;7.05;;
60851;SDS011;48553;50.766;2.900;2023-04-03T11:09:27;11.23;;;6.95;;
60851;SDS011;48553;50.766;2.900;2023-04-03T11:15:46;11.53;;;6.37;;
60851;SDS011;48553;50.766;2.900;2023-04-03T11:18:52;9.32;;;6.00;;
60851;SDS011;48553;50.766;2.900;2023-04-03T11:22:03;9.57;;;5.22;;
60851;SDS011;48553;50.766;2.900;2023-04-03T11:28:14;8.73;;;4.78;;
60851;SDS011;48553;50.766;2.900;2023-04-03T11:31:26;7.50;;;4.10;;
60851;SDS011;48553;50.766;2.900;2023-04-03T11:34:40;7.15;;;4.20;;
60851;SDS011;48553;50.766;2.900;2023-04-03T11:37:47;5.78;;;3.38;;
60851;SDS011;48553;50.766;2.900;2023-04-03T11:40:50;6.18;;;3.35;;
60851;SDS011;48553;50.766;2.900;2023-04-03T11:43:57;5.50;;;2.95;;
60851;SDS011;48553;50.766;2.900;2023-04-03T11:47:06;7.03;;;3.33;;
60851;SDS011;48553;50.766;2.900;2023-04-03T11:50:08;6.35;;;3.05;;
60851;SDS011;48553;50.766;2.900;2023-04-03T11:56:34;6.95;;;3.00;;
60851;SDS011;48553;50.766;2.900;2023-04-03T11:59:38;7.90;;;2.88;;
60851;SDS011;48553;50.766;2.900;2023-04-03T12:02:38;6.10;;;2.70;;
60851;SDS011;48553;50.766;2.900;2023-04-03T12:05:38;5.38;;;2.78;;
60851;SDS011;48553;50.766;2.900;2023-04-03T12:11:40;5.65;;;2.50;;
60851;SDS011;48553;50.766;2.900;2023-04-03T12:14:40;5.25;;;2.42;;
60851;SDS011;48553;50.766;2.900;2023-04-03T12:17:41;5.90;;;2.30;;
60851;SDS011;48553;50.766;2.900;2023-04-03T12:20:46;5.03;;;2.70;;
60851;SDS011;48553;50.766;2.900;2023-04-03T12:27:50;3.13;;;2.10;;
60851;SDS011;48553;50.766;2.900;2023-04-03T12:30:34;3.85;;;2.28;;
60851;SDS011;48553;50.766;2.900;2023-04-03T12:33:46;6.15;;;2.40;;
60851;SDS011;48553;50.766;2.900;2023-04-03T12:37:02;6.33;;;2.43;;
60851;SDS011;48553;50.766;2.900;2023-04-03T12:40:21;4.43;;;2.20;;
60851;SDS011;48553;50.766;2.900;2023-04-03T12:43:57;4.15;;;2.05;;
60851;SDS011;48553;50.766;2.900;2023-04-03T12:46:59;3.20;;;2.00;;
60851;SDS011;48553;50.766;2.900;2023-04-03T12:50:02;4.82;;;2.00;;
60851;SDS011;48553;50.766;2.900;2023-04-03T12:53:23;3.00;;;1.98;;
60851;SDS011;48553;50.766;2.900;2023-04-03T12:56:27;4.32;;;2.30;;
60851;SDS011;48553;50.766;2.900;2023-04-03T12:59:30;3.90;;;2.27;;
60851;SDS011;48553;50.766;2.900;2023-04-03T13:02:34;5.18;;;2.20;;
60851;SDS011;48553;50.766;2.900;2023-04-03T13:05:35;3.17;;;1.98;;
60851;SDS011;48553;50.766;2.900;2023-04-03T13:08:36;3.78;;;1.95;;
60851;SDS011;48553;50.766;2.900;2023-04-03T13:11:37;3.00;;;1.90;;
60851;SDS011;48553;50.766;2.900;2023-04-03T13:14:51;4.03;;;2.00;;
60851;SDS011;48553;50.766;2.900;2023-04-03T13:17:53;4.72;;;1.90;;
60851;SDS011;48553;50.766;2.900;2023-04-03T13:21:37;5.50;;;2.15;;
60851;SDS011;48553;50.766;2.900;2023-04-03T13:24:20;5.05;;;1.90;;
60851;SDS011;48553;50.766;2.900;2023-04-03T13:27:21;4.57;;;2.00;;
60851;SDS011;48553;50.766;2.900;2023-04-03T13:33:56;3.55;;;1.60;;
60851;SDS011;48553;50.766;2.900;2023-04-03T13:40:29;4.38;;;1.65;;
60851;SDS011;48553;50.766;2.900;2023-04-03T13:43:34;4.43;;;1.63;;
60851;SDS011;48553;50.766;2.900;2023-04-03T13:46:36;4.32;;;1.60;;
60851;SDS011;48553;50.766;2.900;2023-04-03T13:53:23;4.15;;;1.45;;
60851;SDS011;48553;50.766;2.900;2023-04-03T13:56:30;3.30;;;1.70;;
60851;SDS011;48553;50.766;2.900;2023-04-03T13:59:38;2.70;;;1.45;;
60851;SDS011;48553;50.766;2.900;2023-04-03T14:02:38;3.90;;;1.40;;
60851;SDS011;48553;50.766;2.900;2023-04-03T14:05:39;4.20;;;1.20;;
60851;SDS011;48553;50.766;2.900;2023-04-03T14:08:40;2.85;;;1.50;;
60851;SDS011;48553;50.766;2.900;2023-04-03T14:11:41;3.15;;;1.25;;
60851;SDS011;48553;50.766;2.900;2023-04-03T14:14:42;2.83;;;1.30;;
60851;SDS011;48553;50.766;2.900;2023-04-03T14:17:43;3.72;;;1.20;;
60851;SDS011;48553;50.766;2.900;2023-04-03T14:20:44;2.63;;;1.20;;
60851;SDS011;48553;50.766;2.900;2023-04-03T14:23:45;2.78;;;1.17;;
60851;SDS011;48553;50.766;2.900;2023-04-03T14:26:47;3.15;;;1.23;;
60851;SDS011;48553;50.766;2.900;2023-04-03T14:29:50;2.67;;;1.20;;
60851;SDS011;48553;50.766;2.900;2023-04-03T14:32:51;2.17;;;1.17;;
60851;SDS011;48553;50.766;2.900;2023-04-03T14:35:53;3.65;;;1.30;;
60851;SDS011;48553;50.766;2.900;2023-04-03T14:38:54;2.97;;;1.40;;
60851;SDS011;48553;50.766;2.900;2023-04-03T14:41:55;2.38;;;1.20;;
60851;SDS011;48553;50.766;2.900;2023-04-03T14:44:55;3.38;;;1.27;;
60851;SDS011;48553;50.766;2.900;2023-04-03T14:47:57;3.50;;;1.20;;
60851;SDS011;48553;50.766;2.900;2023-04-03T14:50:58;4.95;;;1.35;;
60851;SDS011;48553;50.766;2.900;2023-04-03T14:53:59;3.17;;;1.30;;
60851;SDS011;48553;50.766;2.900;2023-04-03T14:57:00;4.15;;;1.30;;
60851;SDS011;48553;50.766;2.900;2023-04-03T15:00:02;3.00;;;1.33;;
60851;SDS011;48553;50.766;2.900;2023-04-03T15:03:04;3.92;;;1.33;;
60851;SDS011;48553;50.766;2.900;2023-04-03T15:06:05;4.45;;;1.50;;
60851;SDS011;48553;50.766;2.900;2023-04-03T15:09:08;2.88;;;1.30;;
60851;SDS011;48553;50.766;2.900;2023-04-03T15:12:19;4.70;;;1.55;;
60851;SDS011;48553;50.766;2.900;2023-04-03T15:15:20;3.67;;;1.65;;
60851;SDS011;48553;50.766;2.900;2023-04-03T15:18:22;4.50;;;1.77;;
60851;SDS011;48553;50.766;2.900;2023-04-03T15:21:28;3.88;;;1.60;;
60851;SDS011;48553;50.766;2.900;2023-04-03T15:24:28;3.83;;;1.45;;
60851;SDS011;48553;50.766;2.900;2023-04-03T15:27:28;3.58;;;1.25;;
60851;SDS011;48553;50.766;2.900;2023-04-03T15:30:29;4.38;;;1.40;;
60851;SDS011;48553;50.766;2.900;2023-04-03T15:33:30;3.25;;;1.50;;
60851;SDS011;48553;50.766;2.900;2023-04-03T15:36:32;3.75;;;1.45;;
60851;SDS011;48553;50.766;2.900;2023-04-03T15:39:32;3.45;;;1.40;;
60851;SDS011;48553;50.766;2.900;2023-04-03T15:42:32;4.18;;;1.52;;
60851;SDS011;48553;50.766;2.900;2023-04-03T15:45:34;3.47;;;1.33;;
60851;SDS011;48553;50.766;2.900;2023-04-03T15:48:36;2.55;;;1.23;;
60851;SDS011;48553;50.766;2.900;2023-04-03T15:51:37;2.55;;;1.23;;
60851;SDS011;48553;50.766;2.900;2023-04-03T15:54:37;3.90;;;1.20;;
60851;SDS011;48553;50.766;2.900;2023-04-03T15:57:38;3.78;;;1.23;;
60851;SDS011;48553;50.766;2.900;2023-04-03T16:00:38;2.90;;;1.13;;
60851;SDS011;48553;50.766;2.900;2023-04-03T16:03:40;3.55;;;1.25;;
60851;SDS011;48553;50.766;2.900;2023-04-03T16:06:44;2.65;;;1.10;;
60851;SDS011;48553;50.766;2.900;2023-04-03T16:09:45;2.80;;;1.10;;
60851;SDS011;48553;50.766;2.900;2023-04-03T16:12:45;3.90;;;1.00;;
60851;SDS011;48553;50.766;2.900;2023-04-03T16:15:46;4.70;;;1.10;;
60851;SDS011;48553;50.766;2.900;2023-04-03T16:18:48;2.13;;;1.20;;
60851;SDS011;48553;50.766;2.900;2023-04-03T16:21:49;1.73;;;0.95;;
60851;SDS011;48553;50.766;2.900;2023-04-03T16:24:50;3.15;;;1.20;;
60851;SDS011;48553;50.766;2.900;2023-04-03T16:27:50;3.67;;;1.00;;
60851;SDS011;48553;50.766;2.900;2023-04-03T16:30:51;1.80;;;0.90;;
60851;SDS011;48553;50.766;2.900;2023-04-03T16:33:51;3.25;;;1.00;;
60851;SDS011;48553;50.766;2.900;2023-04-03T16:36:52;2.13;;;0.88;;
60851;SDS011;48553;50.766;2.900;2023-04-03T16:39:53;2.38;;;1.10;;
60851;SDS011;48553;50.766;2.900;2023-04-03T16:42:53;3.38;;;1.02;;
60851;SDS011;48553;50.766;2.900;2023-04-03T16:45:53;2.17;;;0.90;;
60851;SDS011;48553;50.766;2.900;2023-04-03T16:48:54;1.88;;;1.02;;
60851;SDS011;48553;50.766;2.900;2023-04-03T16:51:54;3.10;;;1.00;;
60851;SDS011;48553;50.766;2.900;2023-04-03T16:54:55;4.80;;;1.15;;
60851;SDS011;48553;50.766;2.900;2023-04-03T16:57:57;2.38;;;1.02;;
60851;SDS011;48553;50.766;2.900;2023-04-03T17:00:58;2.65;;;1.00;;
60851;SDS011;48553;50.766;2.900;2023-04-03T17:03:58;2.40;;;1.10;;
60851;SDS011;48553;50.766;2.900;2023-04-03T17:06:58;2.72;;;1.20;;
60851;SDS011;48553;50.766;2.900;2023-04-03T17:10:05;2.95;;;1.02;;
60851;SDS011;48553;50.766;2.900;2023-04-03T17:13:06;3.13;;;1.30;;
60851;SDS011;48553;50.766;2.900;2023-04-03T17:16:07;4.15;;;1.50;;
60851;SDS011;48553;50.766;2.900;2023-04-03T17:19:11;2.22;;;1.15;;
60851;SDS011;48553;50.766;2.900;2023-04-03T17:22:11;2.97;;;1.10;;
60851;SDS011;48553;50.766;2.900;2023-04-03T17:25:12;3.63;;;1.20;;
60851;SDS011;48553;50.766;2.900;2023-04-03T17:28:14;2.65;;;1.30;;
60851;SDS011;48553;50.766;2.900;2023-04-03T17:31:15;3.38;;;1.30;;
60851;SDS011;48553;50.766;2.900;2023-04-03T17:34:15;3.17;;;1.10;;
60851;SDS011;48553;50.766;2.900;2023-04-03T17:37:16;2.80;;;1.20;;
60851;SDS011;48553;50.766;2.900;2023-04-03T17:40:16;3.75;;;1.50;;
60851;SDS011;48553;50.766;2.900;2023-04-03T17:43:17;3.15;;;1.30;;
60851;SDS011;48553;50.766;2.900;2023-04-03T17:46:18;4.38;;;1.27;;
60851;SDS011;48553;50.766;2.900;2023-04-03T17:49:18;3.17;;;1.25;;
60851;SDS011;48553;50.766;2.900;2023-04-03T17:52:21;5.00;;;1.33;;
60851;SDS011;48553;50.766;2.900;2023-04-03T17:55:24;2.42;;;1.30;;
60851;SDS011;48553;50.766;2.900;2023-04-03T17:58:25;2.95;;;1.40;;
60851;SDS011;48553;50.766;2.900;2023-04-03T18:01:27;2.67;;;1.15;;
60851;SDS011;48553;50.766;2.900;2023-04-03T18:04:29;2.45;;;1.20;;
60851;SDS011;48553;50.766;2.900;2023-04-03T18:07:30;2.92;;;1.40;;
60851;SDS011;48553;50.766;2.900;2023-04-03T18:10:31;2.95;;;1.30;;
60851;SDS011;48553;50.766;2.900;2023-04-03T18:13:31;2.53;;;1.27;;
60851;SDS011;48553;50.766;2.900;2023-04-03T18:16:32;4.07;;;1.48;;
60851;SDS011;48553;50.766;2.900;2023-04-03T18:19:33;2.78;;;1.30;;
60851;SDS011;48553;50.766;2.900;2023-04-03T18:22:34;3.58;;;1.50;;
60851;SDS011;48553;50.766;2.900;2023-04-03T18:25:35;3.13;;;1.25;;
60851;SDS011;48553;50.766;2.900;2023-04-03T18:28:37;4.65;;;1.50;;
60851;SDS011;48553;50.766;2.900;2023-04-03T18:31:39;2.97;;;1.60;;
60851;SDS011;48553;50.766;2.900;2023-04-03T18:34:43;3.43;;;1.40;;
60851;SDS011;48553;50.766;2.900;2023-04-03T18:40:46;2.70;;;1.33;;
60851;SDS011;48553;50.766;2.900;2023-04-03T18:43:49;3.50;;;1.38;;
60851;SDS011;48553;50.766;2.900;2023-04-03T18:46:50;5.32;;;1.45;;
60851;SDS011;48553;50.766;2.900;2023-04-03T18:49:52;2.85;;;1.30;;
60851;SDS011;48553;50.766;2.900;2023-04-03T18:52:53;4.60;;;1.70;;
60851;SDS011;48553;50.766;2.900;2023-04-03T18:55:53;3.40;;;1.40;;
60851;SDS011;48553;50.766;2.900;2023-04-03T18:58:54;3.40;;;1.52;;
60851;SDS011;48553;50.766;2.900;2023-04-03T19:01:54;3.85;;;1.45;;
60851;SDS011;48553;50.766;2.900;2023-04-03T19:04:55;2.67;;;1.45;;
60851;SDS011;48553;50.766;2.900;2023-04-03T19:07:56;3.83;;;1.50;;
60851;SDS011;48553;50.766;2.900;2023-04-03T19:10:57;3.85;;;1.50;;
60851;SDS011;48553;50.766;2.900;2023-04-03T19:13:58;3.65;;;1.60;;
60851;SDS011;48553;50.766;2.900;2023-04-03T19:16:58;4.15;;;1.67;;